sensor_id;sensor_type;location;lat;lon;timestamp;temperature;humidity
14257;DHT22;7212;53.254;6.456;2022-07-06T00:01:23;18.30;99.90
14257;DHT22;7212;53.254;6.456;2022-07-06T00:03:49;18.30;99.90
14257;DHT22;7212;53.254;6.456;2022-07-06T00:06:15;18.30;99.90
14257;DHT22;7212;53.254;6.456;2022-07-06T00:08:42;18.30;99.90
14257;DHT22;7212;53.254;6.456;2022-07-06T00:11:09;18.30;99.90
14257;DHT22;7212;53.254;6.456;2022-07-06T00:13:34;18.30;99.90
14257;DHT22;7212;53.254;6.456;2022-07-06T00:16:00;18.20;99.90
14257;DHT22;7212;53.254;6.456;2022-07-06T00:18:26;18.20;99.90
14257;DHT22;7212;53.254;6.456;2022-07-06T00:20:51;18.20;99.90
14257;DHT22;7212;53.254;6.456;2022-07-06T00:23:17;18.20;99.90
14257;DHT22;7212;53.254;6.456;2022-07-06T00:25:43;18.10;99.90
14257;DHT22;7212;53.254;6.456;2022-07-06T00:28:09;18.10;99.90
14257;DHT22;7212;53.254;6.456;2022-07-06T00:30:35;18.10;99.90
14257;DHT22;7212;53.254;6.456;2022-07-06T00:33:00;18.10;99.90
14257;DHT22;7212;53.254;6.456;2022-07-06T00:35:26;18.10;99.90
14257;DHT22;7212;53.254;6.456;2022-07-06T00:37:52;18.00;99.90
14257;DHT22;7212;53.254;6.456;2022-07-06T00:40:18;18.00;99.90
14257;DHT22;7212;53.254;6.456;2022-07-06T00:42:46;18.00;99.90
14257;DHT22;7212;53.254;6.456;2022-07-06T00:45:13;18.00;99.90
14257;DHT22;7212;53.254;6.456;2022-07-06T00:47:40;18.00;99.90
14257;DHT22;7212;53.254;6.456;2022-07-06T00:50:08;18.00;99.90
14257;DHT22;7212;53.254;6.456;2022-07-06T00:52:44;17.90;99.90
14257;DHT22;7212;53.254;6.456;2022-07-06T00:55:10;17.90;99.90
14257;DHT22;7212;53.254;6.456;2022-07-06T00:57:37;17.90;99.90
14257;DHT22;7212;53.254;6.456;2022-07-06T01:00:08;17.90;99.90
14257;DHT22;7212;53.254;6.456;2022-07-06T01:02:35;17.90;99.90
14257;DHT22;7212;53.254;6.456;2022-07-06T01:05:03;17.80;99.90
14257;DHT22;7212;53.254;6.456;2022-07-06T01:07:29;17.80;99.90
14257;DHT22;7212;53.254;6.456;2022-07-06T01:09:55;17.80;99.90
14257;DHT22;7212;53.254;6.456;2022-07-06T01:12:21;17.80;99.90
14257;DHT22;7212;53.254;6.456;2022-07-06T01:14:47;17.80;99.90
14257;DHT22;7212;53.254;6.456;2022-07-06T01:17:14;17.80;99.90
14257;DHT22;7212;53.254;6.456;2022-07-06T01:19:40;17.80;99.90
14257;DHT22;7212;53.254;6.456;2022-07-06T01:22:06;17.70;99.90
14257;DHT22;7212;53.254;6.456;2022-07-06T01:24:34;17.70;99.90
14257;DHT22;7212;53.254;6.456;2022-07-06T01:27:00;17.70;99.90
14257;DHT22;7212;53.254;6.456;2022-07-06T01:29:26;17.70;99.90
14257;DHT22;7212;53.254;6.456;2022-07-06T01:31:52;17.60;99.90
14257;DHT22;7212;53.254;6.456;2022-07-06T01:34:18;17.60;99.90
14257;DHT22;7212;53.254;6.456;2022-07-06T01:36:44;17.60;99.90
14257;DHT22;7212;53.254;6.456;2022-07-06T01:39:10;17.60;99.90
14257;DHT22;7212;53.254;6.456;2022-07-06T01:41:36;17.60;99.90
14257;DHT22;7212;53.254;6.456;2022-07-06T01:44:03;17.60;99.90
14257;DHT22;7212;53.254;6.456;2022-07-06T01:46:28;17.60;99.90
14257;DHT22;7212;53.254;6.456;2022-07-06T01:48:54;17.60;99.90
14257;DHT22;7212;53.254;6.456;2022-07-06T01:51:20;17.60;99.90
14257;DHT22;7212;53.254;6.456;2022-07-06T01:53:46;17.60;99.90
14257;DHT22;7212;53.254;6.456;2022-07-06T01:56:12;17.60;99.90
14257;DHT22;7212;53.254;6.456;2022-07-06T01:58:39;17.60;99.90
14257;DHT22;7212;53.254;6.456;2022-07-06T02:01:12;17.50;99.90
14257;DHT22;7212;53.254;6.456;2022-07-06T02:03:38;17.50;99.90
14257;DHT22;7212;53.254;6.456;2022-07-06T02:06:05;17.50;99.90
14257;DHT22;7212;53.254;6.456;2022-07-06T02:08:31;17.50;99.90
14257;DHT22;7212;53.254;6.456;2022-07-06T02:10:57;17.50;99.90
14257;DHT22;7212;53.254;6.456;2022-07-06T02:13:23;17.50;99.90
14257;DHT22;7212;53.254;6.456;2022-07-06T02:15:49;17.40;99.90
14257;DHT22;7212;53.254;6.456;2022-07-06T02:18:15;17.40;99.90
14257;DHT22;7212;53.254;6.456;2022-07-06T02:20:40;17.40;99.90
14257;DHT22;7212;53.254;6.456;2022-07-06T02:23:06;17.40;99.90
14257;DHT22;7212;53.254;6.456;2022-07-06T02:25:32;17.40;99.90
14257;DHT22;7212;53.254;6.456;2022-07-06T02:27:57;17.40;99.90
14257;DHT22;7212;53.254;6.456;2022-07-06T02:30:23;17.30;99.90
14257;DHT22;7212;53.254;6.456;2022-07-06T02:32:48;17.30;99.90
14257;DHT22;7212;53.254;6.456;2022-07-06T02:35:14;17.30;99.90
14257;DHT22;7212;53.254;6.456;2022-07-06T02:37:39;17.20;99.90
14257;DHT22;7212;53.254;6.456;2022-07-06T02:40:06;17.20;99.90
14257;DHT22;7212;53.254;6.456;2022-07-06T02:42:31;17.20;99.90
14257;DHT22;7212;53.254;6.456;2022-07-06T02:44:57;17.10;99.90
14257;DHT22;7212;53.254;6.456;2022-07-06T02:47:23;17.10;99.90
14257;DHT22;7212;53.254;6.456;2022-07-06T02:49:48;17.10;99.90
14257;DHT22;7212;53.254;6.456;2022-07-06T02:52:14;17.00;99.90
14257;DHT22;7212;53.254;6.456;2022-07-06T02:54:39;17.00;99.90
14257;DHT22;7212;53.254;6.456;2022-07-06T02:57:05;17.00;99.90
14257;DHT22;7212;53.254;6.456;2022-07-06T02:59:31;17.00;99.90
14257;DHT22;7212;53.254;6.456;2022-07-06T03:01:56;16.90;99.90
14257;DHT22;7212;53.254;6.456;2022-07-06T03:04:22;16.90;99.90
14257;DHT22;7212;53.254;6.456;2022-07-06T03:06:48;16.90;99.90
14257;DHT22;7212;53.254;6.456;2022-07-06T03:09:13;16.80;99.90
14257;DHT22;7212;53.254;6.456;2022-07-06T03:11:39;16.80;99.90
14257;DHT22;7212;53.254;6.456;2022-07-06T03:14:05;16.80;99.90
14257;DHT22;7212;53.254;6.456;2022-07-06T03:16:31;16.70;99.90
14257;DHT22;7212;53.254;6.456;2022-07-06T03:18:57;16.70;99.90
14257;DHT22;7212;53.254;6.456;2022-07-06T03:21:24;16.70;99.90
14257;DHT22;7212;53.254;6.456;2022-07-06T03:23:49;16.70;99.90
14257;DHT22;7212;53.254;6.456;2022-07-06T03:26:15;16.60;99.90
14257;DHT22;7212;53.254;6.456;2022-07-06T03:28:41;16.60;99.90
14257;DHT22;7212;53.254;6.456;2022-07-06T03:31:06;16.60;99.90
14257;DHT22;7212;53.254;6.456;2022-07-06T03:33:32;16.60;99.90
14257;DHT22;7212;53.254;6.456;2022-07-06T03:35:57;16.50;99.90
14257;DHT22;7212;53.254;6.456;2022-07-06T03:38:23;16.50;99.90
14257;DHT22;7212;53.254;6.456;2022-07-06T03:40:49;16.50;99.90
14257;DHT22;7212;53.254;6.456;2022-07-06T03:43:14;16.40;99.90
14257;DHT22;7212;53.254;6.456;2022-07-06T03:45:40;16.50;99.90
14257;DHT22;7212;53.254;6.456;2022-07-06T03:48:06;16.50;99.90
14257;DHT22;7212;53.254;6.456;2022-07-06T03:50:31;16.40;99.90
14257;DHT22;7212;53.254;6.456;2022-07-06T03:52:57;16.40;99.90
14257;DHT22;7212;53.254;6.456;2022-07-06T03:55:22;16.40;99.90
14257;DHT22;7212;53.254;6.456;2022-07-06T03:57:48;16.30;99.90
14257;DHT22;7212;53.254;6.456;2022-07-06T04:00:14;16.30;99.90
14257;DHT22;7212;53.254;6.456;2022-07-06T04:02:40;16.30;99.90
14257;DHT22;7212;53.254;6.456;2022-07-06T04:05:06;16.30;99.90
14257;DHT22;7212;53.254;6.456;2022-07-06T04:07:32;16.20;99.90
14257;DHT22;7212;53.254;6.456;2022-07-06T04:09:58;16.20;99.90
14257;DHT22;7212;53.254;6.456;2022-07-06T04:12:23;16.20;99.90
14257;DHT22;7212;53.254;6.456;2022-07-06T04:14:49;16.20;99.90
14257;DHT22;7212;53.254;6.456;2022-07-06T04:17:15;16.20;99.90
14257;DHT22;7212;53.254;6.456;2022-07-06T04:19:59;16.20;99.90
14257;DHT22;7212;53.254;6.456;2022-07-06T04:22:25;16.10;99.90
14257;DHT22;7212;53.254;6.456;2022-07-06T04:24:50;16.10;99.90
14257;DHT22;7212;53.254;6.456;2022-07-06T04:27:16;16.10;99.90
14257;DHT22;7212;53.254;6.456;2022-07-06T04:29:42;16.10;99.90
14257;DHT22;7212;53.254;6.456;2022-07-06T04:32:07;16.10;99.90
14257;DHT22;7212;53.254;6.456;2022-07-06T04:34:33;16.10;99.90
14257;DHT22;7212;53.254;6.456;2022-07-06T04:36:59;16.10;99.90
14257;DHT22;7212;53.254;6.456;2022-07-06T04:39:24;16.10;99.90
14257;DHT22;7212;53.254;6.456;2022-07-06T04:41:50;16.00;99.90
14257;DHT22;7212;53.254;6.456;2022-07-06T04:44:16;16.10;99.90
14257;DHT22;7212;53.254;6.456;2022-07-06T04:46:41;16.10;99.90
14257;DHT22;7212;53.254;6.456;2022-07-06T04:49:07;16.10;99.90
14257;DHT22;7212;53.254;6.456;2022-07-06T04:51:33;16.10;99.90
14257;DHT22;7212;53.254;6.456;2022-07-06T04:53:58;16.10;99.90
14257;DHT22;7212;53.254;6.456;2022-07-06T04:56:24;16.10;99.90
14257;DHT22;7212;53.254;6.456;2022-07-06T04:58:49;16.10;99.90
14257;DHT22;7212;53.254;6.456;2022-07-06T05:01:16;16.20;99.90
14257;DHT22;7212;53.254;6.456;2022-07-06T05:03:41;16.20;99.90
14257;DHT22;7212;53.254;6.456;2022-07-06T05:06:07;16.20;99.90
14257;DHT22;7212;53.254;6.456;2022-07-06T05:08:34;16.20;99.90
14257;DHT22;7212;53.254;6.456;2022-07-06T05:11:00;16.30;99.90
14257;DHT22;7212;53.254;6.456;2022-07-06T05:13:26;16.30;99.90
14257;DHT22;7212;53.254;6.456;2022-07-06T05:15:52;16.30;99.90
14257;DHT22;7212;53.254;6.456;2022-07-06T05:18:17;16.30;99.90
14257;DHT22;7212;53.254;6.456;2022-07-06T05:20:43;16.30;99.90
14257;DHT22;7212;53.254;6.456;2022-07-06T05:23:09;16.30;99.90
14257;DHT22;7212;53.254;6.456;2022-07-06T05:25:35;16.40;99.90
14257;DHT22;7212;53.254;6.456;2022-07-06T05:28:02;16.40;99.90
14257;DHT22;7212;53.254;6.456;2022-07-06T05:30:28;16.40;99.90
14257;DHT22;7212;53.254;6.456;2022-07-06T05:32:54;16.40;99.90
14257;DHT22;7212;53.254;6.456;2022-07-06T05:35:19;16.40;99.90
14257;DHT22;7212;53.254;6.456;2022-07-06T05:37:45;16.40;99.90
14257;DHT22;7212;53.254;6.456;2022-07-06T05:40:11;16.40;99.90
14257;DHT22;7212;53.254;6.456;2022-07-06T05:42:37;16.40;99.90
14257;DHT22;7212;53.254;6.456;2022-07-06T05:45:02;16.50;99.90
14257;DHT22;7212;53.254;6.456;2022-07-06T05:47:29;16.50;99.90
14257;DHT22;7212;53.254;6.456;2022-07-06T05:50:13;16.50;99.90
14257;DHT22;7212;53.254;6.456;2022-07-06T05:52:44;16.50;99.90
14257;DHT22;7212;53.254;6.456;2022-07-06T05:55:12;16.60;99.90
14257;DHT22;7212;53.254;6.456;2022-07-06T05:57:39;16.60;99.90
14257;DHT22;7212;53.254;6.456;2022-07-06T06:00:06;16.60;99.90
14257;DHT22;7212;53.254;6.456;2022-07-06T06:02:42;16.60;99.90
14257;DHT22;7212;53.254;6.456;2022-07-06T06:05:09;16.70;99.90
14257;DHT22;7212;53.254;6.456;2022-07-06T06:07:36;16.70;99.90
14257;DHT22;7212;53.254;6.456;2022-07-06T06:10:08;16.70;99.90
14257;DHT22;7212;53.254;6.456;2022-07-06T06:12:34;16.70;99.90
14257;DHT22;7212;53.254;6.456;2022-07-06T06:15:00;16.80;99.90
14257;DHT22;7212;53.254;6.456;2022-07-06T06:17:26;16.80;99.90
14257;DHT22;7212;53.254;6.456;2022-07-06T06:19:52;16.80;99.90
14257;DHT22;7212;53.254;6.456;2022-07-06T06:22:17;16.90;99.90
14257;DHT22;7212;53.254;6.456;2022-07-06T06:24:44;16.90;99.90
14257;DHT22;7212;53.254;6.456;2022-07-06T06:27:09;16.90;99.90
14257;DHT22;7212;53.254;6.456;2022-07-06T06:29:35;16.90;99.90
14257;DHT22;7212;53.254;6.456;2022-07-06T06:32:01;16.90;99.90
14257;DHT22;7212;53.254;6.456;2022-07-06T06:34:26;16.90;99.90
14257;DHT22;7212;53.254;6.456;2022-07-06T06:36:52;17.00;99.90
14257;DHT22;7212;53.254;6.456;2022-07-06T06:39:17;17.00;99.90
14257;DHT22;7212;53.254;6.456;2022-07-06T06:41:43;17.00;99.90
14257;DHT22;7212;53.254;6.456;2022-07-06T06:44:08;17.00;99.90
14257;DHT22;7212;53.254;6.456;2022-07-06T06:46:34;17.10;99.90
14257;DHT22;7212;53.254;6.456;2022-07-06T06:49:00;17.10;99.90
14257;DHT22;7212;53.254;6.456;2022-07-06T06:51:25;17.10;99.90
14257;DHT22;7212;53.254;6.456;2022-07-06T06:53:51;17.10;99.90
14257;DHT22;7212;53.254;6.456;2022-07-06T06:56:17;17.20;99.90
14257;DHT22;7212;53.254;6.456;2022-07-06T06:58:43;17.20;99.90
14257;DHT22;7212;53.254;6.456;2022-07-06T07:01:08;17.20;99.90
14257;DHT22;7212;53.254;6.456;2022-07-06T07:03:34;17.20;99.90
14257;DHT22;7212;53.254;6.456;2022-07-06T07:06:00;17.20;99.90
14257;DHT22;7212;53.254;6.456;2022-07-06T07:08:26;17.20;99.90
14257;DHT22;7212;53.254;6.456;2022-07-06T07:10:52;17.30;99.90
14257;DHT22;7212;53.254;6.456;2022-07-06T07:13:17;17.20;99.90
14257;DHT22;7212;53.254;6.456;2022-07-06T07:15:43;17.20;99.90
14257;DHT22;7212;53.254;6.456;2022-07-06T07:18:09;17.30;99.90
14257;DHT22;7212;53.254;6.456;2022-07-06T07:20:34;17.30;99.90
14257;DHT22;7212;53.254;6.456;2022-07-06T07:23:00;17.30;99.90
14257;DHT22;7212;53.254;6.456;2022-07-06T07:25:26;17.30;99.90
14257;DHT22;7212;53.254;6.456;2022-07-06T07:27:53;17.40;99.90
14257;DHT22;7212;53.254;6.456;2022-07-06T07:30:18;17.40;99.90
14257;DHT22;7212;53.254;6.456;2022-07-06T07:32:44;17.40;99.90
14257;DHT22;7212;53.254;6.456;2022-07-06T07:35:10;17.40;99.90
14257;DHT22;7212;53.254;6.456;2022-07-06T07:37:36;17.50;99.90
14257;DHT22;7212;53.254;6.456;2022-07-06T07:40:01;17.50;99.90
14257;DHT22;7212;53.254;6.456;2022-07-06T07:42:28;17.50;99.90
14257;DHT22;7212;53.254;6.456;2022-07-06T07:44:53;17.50;99.90
14257;DHT22;7212;53.254;6.456;2022-07-06T07:47:19;17.60;99.90
14257;DHT22;7212;53.254;6.456;2022-07-06T07:49:45;17.70;99.90
14257;DHT22;7212;53.254;6.456;2022-07-06T07:52:11;17.80;99.90
14257;DHT22;7212;53.254;6.456;2022-07-06T07:54:36;17.80;99.90
14257;DHT22;7212;53.254;6.456;2022-07-06T07:57:02;17.90;99.90
14257;DHT22;7212;53.254;6.456;2022-07-06T07:59:28;18.00;99.90
14257;DHT22;7212;53.254;6.456;2022-07-06T08:01:54;18.00;99.90
14257;DHT22;7212;53.254;6.456;2022-07-06T08:04:19;18.10;99.90
14257;DHT22;7212;53.254;6.456;2022-07-06T08:06:45;18.10;99.90
14257;DHT22;7212;53.254;6.456;2022-07-06T08:09:11;18.20;99.90
14257;DHT22;7212;53.254;6.456;2022-07-06T08:11:36;18.20;99.90
14257;DHT22;7212;53.254;6.456;2022-07-06T08:14:02;18.30;99.90
14257;DHT22;7212;53.254;6.456;2022-07-06T08:16:28;18.30;99.90
14257;DHT22;7212;53.254;6.456;2022-07-06T08:18:54;18.30;99.90
14257;DHT22;7212;53.254;6.456;2022-07-06T08:21:19;18.40;99.90
14257;DHT22;7212;53.254;6.456;2022-07-06T08:23:45;18.40;99.90
14257;DHT22;7212;53.254;6.456;2022-07-06T08:26:11;18.40;99.90
14257;DHT22;7212;53.254;6.456;2022-07-06T08:28:36;18.50;99.90
14257;DHT22;7212;53.254;6.456;2022-07-06T08:31:02;18.60;99.90
14257;DHT22;7212;53.254;6.456;2022-07-06T08:33:28;18.70;99.90
14257;DHT22;7212;53.254;6.456;2022-07-06T08:35:53;18.80;99.90
14257;DHT22;7212;53.254;6.456;2022-07-06T08:38:19;18.80;99.90
14257;DHT22;7212;53.254;6.456;2022-07-06T08:40:48;18.90;99.90
14257;DHT22;7212;53.254;6.456;2022-07-06T08:43:15;19.00;99.90
14257;DHT22;7212;53.254;6.456;2022-07-06T08:45:41;19.00;99.90
14257;DHT22;7212;53.254;6.456;2022-07-06T08:48:10;19.10;99.90
14257;DHT22;7212;53.254;6.456;2022-07-06T08:50:36;19.20;99.90
14257;DHT22;7212;53.254;6.456;2022-07-06T08:53:03;19.30;99.90
14257;DHT22;7212;53.254;6.456;2022-07-06T08:55:29;19.40;99.90
14257;DHT22;7212;53.254;6.456;2022-07-06T08:57:55;19.40;99.90
14257;DHT22;7212;53.254;6.456;2022-07-06T09:00:23;19.50;99.90
14257;DHT22;7212;53.254;6.456;2022-07-06T09:02:50;19.60;99.90
14257;DHT22;7212;53.254;6.456;2022-07-06T09:05:17;19.60;99.90
14257;DHT22;7212;53.254;6.456;2022-07-06T09:07:45;19.70;99.90
14257;DHT22;7212;53.254;6.456;2022-07-06T09:10:14;19.80;99.90
14257;DHT22;7212;53.254;6.456;2022-07-06T09:12:40;19.80;99.90
14257;DHT22;7212;53.254;6.456;2022-07-06T09:15:05;19.90;99.90
14257;DHT22;7212;53.254;6.456;2022-07-06T09:17:31;19.90;99.90
14257;DHT22;7212;53.254;6.456;2022-07-06T09:19:57;20.00;99.90
14257;DHT22;7212;53.254;6.456;2022-07-06T09:22:31;20.00;99.90
14257;DHT22;7212;53.254;6.456;2022-07-06T09:25:12;20.00;99.90
14257;DHT22;7212;53.254;6.456;2022-07-06T09:27:44;20.00;99.90
14257;DHT22;7212;53.254;6.456;2022-07-06T09:30:16;20.10;99.90
14257;DHT22;7212;53.254;6.456;2022-07-06T09:32:44;20.20;99.90
14257;DHT22;7212;53.254;6.456;2022-07-06T09:35:36;20.20;99.90
14257;DHT22;7212;53.254;6.456;2022-07-06T09:38:07;20.40;99.90
14257;DHT22;7212;53.254;6.456;2022-07-06T09:40:38;20.40;99.90
14257;DHT22;7212;53.254;6.456;2022-07-06T09:43:15;20.50;99.90
14257;DHT22;7212;53.254;6.456;2022-07-06T09:45:46;20.60;99.90
14257;DHT22;7212;53.254;6.456;2022-07-06T09:48:18;20.70;99.90
14257;DHT22;7212;53.254;6.456;2022-07-06T09:50:48;20.80;99.90
14257;DHT22;7212;53.254;6.456;2022-07-06T09:53:16;20.80;99.90
14257;DHT22;7212;53.254;6.456;2022-07-06T09:55:47;20.90;99.90
14257;DHT22;7212;53.254;6.456;2022-07-06T09:58:14;21.00;99.90
14257;DHT22;7212;53.254;6.456;2022-07-06T10:00:44;21.10;99.90
14257;DHT22;7212;53.254;6.456;2022-07-06T10:03:10;21.10;99.90
14257;DHT22;7212;53.254;6.456;2022-07-06T10:05:37;21.20;99.90
14257;DHT22;7212;53.254;6.456;2022-07-06T10:08:03;21.20;99.90
14257;DHT22;7212;53.254;6.456;2022-07-06T10:10:32;21.30;99.90
14257;DHT22;7212;53.254;6.456;2022-07-06T10:12:59;21.30;99.90
14257;DHT22;7212;53.254;6.456;2022-07-06T10:15:26;21.30;99.90
14257;DHT22;7212;53.254;6.456;2022-07-06T10:17:53;21.30;99.90
14257;DHT22;7212;53.254;6.456;2022-07-06T10:20:20;21.40;99.90
14257;DHT22;7212;53.254;6.456;2022-07-06T10:22:50;21.50;99.90
14257;DHT22;7212;53.254;6.456;2022-07-06T10:25:17;21.60;99.90
14257;DHT22;7212;53.254;6.456;2022-07-06T10:27:45;21.60;99.90
14257;DHT22;7212;53.254;6.456;2022-07-06T10:30:12;21.80;99.90
14257;DHT22;7212;53.254;6.456;2022-07-06T10:32:39;21.80;99.90
14257;DHT22;7212;53.254;6.456;2022-07-06T10:35:05;22.00;99.90
14257;DHT22;7212;53.254;6.456;2022-07-06T10:37:31;22.00;99.90
14257;DHT22;7212;53.254;6.456;2022-07-06T10:39:59;22.10;99.90
14257;DHT22;7212;53.254;6.456;2022-07-06T10:43:17;22.20;99.90
14257;DHT22;7212;53.254;6.456;2022-07-06T10:50:39;22.10;99.90
14257;DHT22;7212;53.254;6.456;2022-07-06T10:53:13;22.20;99.90
14257;DHT22;7212;53.254;6.456;2022-07-06T10:55:42;22.40;99.90
14257;DHT22;7212;53.254;6.456;2022-07-06T10:58:09;22.50;99.90
14257;DHT22;7212;53.254;6.456;2022-07-06T11:00:50;22.60;99.90
14257;DHT22;7212;53.254;6.456;2022-07-06T11:06:24;22.90;99.90
14257;DHT22;7212;53.254;6.456;2022-07-06T11:08:58;22.90;99.90
14257;DHT22;7212;53.254;6.456;2022-07-06T11:14:04;23.20;99.90
14257;DHT22;7212;53.254;6.456;2022-07-06T11:16:32;23.30;99.90
14257;DHT22;7212;53.254;6.456;2022-07-06T11:21:44;23.40;99.90
14257;DHT22;7212;53.254;6.456;2022-07-06T11:24:16;23.50;99.90
14257;DHT22;7212;53.254;6.456;2022-07-06T11:26:44;23.50;99.90
14257;DHT22;7212;53.254;6.456;2022-07-06T11:29:12;23.50;99.90
14257;DHT22;7212;53.254;6.456;2022-07-06T11:31:42;23.50;99.90
14257;DHT22;7212;53.254;6.456;2022-07-06T11:34:09;23.60;99.90
14257;DHT22;7212;53.254;6.456;2022-07-06T11:36:36;23.60;99.90
14257;DHT22;7212;53.254;6.456;2022-07-06T11:39:03;23.50;99.90
14257;DHT22;7212;53.254;6.456;2022-07-06T11:41:30;23.50;99.90
14257;DHT22;7212;53.254;6.456;2022-07-06T11:43:56;23.60;99.90
14257;DHT22;7212;53.254;6.456;2022-07-06T11:46:27;23.70;99.90
14257;DHT22;7212;53.254;6.456;2022-07-06T11:48:55;24.00;99.90
14257;DHT22;7212;53.254;6.456;2022-07-06T11:51:22;24.10;99.90
14257;DHT22;7212;53.254;6.456;2022-07-06T11:53:51;24.10;99.90
14257;DHT22;7212;53.254;6.456;2022-07-06T11:56:17;24.00;99.90
14257;DHT22;7212;53.254;6.456;2022-07-06T11:58:45;24.10;99.90
14257;DHT22;7212;53.254;6.456;2022-07-06T12:01:12;24.10;99.90
14257;DHT22;7212;53.254;6.456;2022-07-06T12:03:39;24.00;99.90
14257;DHT22;7212;53.254;6.456;2022-07-06T12:06:06;24.20;99.90
14257;DHT22;7212;53.254;6.456;2022-07-06T12:08:40;24.30;99.90
14257;DHT22;7212;53.254;6.456;2022-07-06T12:11:06;24.40;99.90
14257;DHT22;7212;53.254;6.456;2022-07-06T12:13:37;24.30;99.90
14257;DHT22;7212;53.254;6.456;2022-07-06T12:16:11;24.30;99.90
14257;DHT22;7212;53.254;6.456;2022-07-06T12:18:38;24.30;99.90
14257;DHT22;7212;53.254;6.456;2022-07-06T12:21:10;24.30;99.90
14257;DHT22;7212;53.254;6.456;2022-07-06T12:23:51;24.40;99.90
14257;DHT22;7212;53.254;6.456;2022-07-06T12:26:19;24.40;99.90
14257;DHT22;7212;53.254;6.456;2022-07-06T12:28:58;24.40;99.90
14257;DHT22;7212;53.254;6.456;2022-07-06T12:31:38;24.50;99.90
14257;DHT22;7212;53.254;6.456;2022-07-06T12:34:11;24.50;99.90
14257;DHT22;7212;53.254;6.456;2022-07-06T12:36:57;24.60;99.90
14257;DHT22;7212;53.254;6.456;2022-07-06T12:39:27;24.60;99.90
14257;DHT22;7212;53.254;6.456;2022-07-06T12:42:14;24.40;99.80
14257;DHT22;7212;53.254;6.456;2022-07-06T12:44:48;24.30;99.90
14257;DHT22;7212;53.254;6.456;2022-07-06T12:47:17;24.20;99.90
14257;DHT22;7212;53.254;6.456;2022-07-06T12:49:43;24.20;99.90
14257;DHT22;7212;53.254;6.456;2022-07-06T12:52:10;24.30;99.90
14257;DHT22;7212;53.254;6.456;2022-07-06T12:54:48;24.30;99.90
14257;DHT22;7212;53.254;6.456;2022-07-06T12:57:22;24.30;99.90
14257;DHT22;7212;53.254;6.456;2022-07-06T13:02:29;24.30;99.90
14257;DHT22;7212;53.254;6.456;2022-07-06T13:05:01;24.30;99.90
14257;DHT22;7212;53.254;6.456;2022-07-06T13:07:28;24.20;99.90
14257;DHT22;7212;53.254;6.456;2022-07-06T13:09:54;24.20;99.90
14257;DHT22;7212;53.254;6.456;2022-07-06T13:12:21;24.20;99.90
14257;DHT22;7212;53.254;6.456;2022-07-06T13:14:47;24.10;99.90
14257;DHT22;7212;53.254;6.456;2022-07-06T13:17:13;24.00;99.40
14257;DHT22;7212;53.254;6.456;2022-07-06T13:19:39;23.80;99.90
14257;DHT22;7212;53.254;6.456;2022-07-06T13:22:04;23.70;99.90
14257;DHT22;7212;53.254;6.456;2022-07-06T13:24:30;23.60;99.90
14257;DHT22;7212;53.254;6.456;2022-07-06T13:26:56;23.70;99.90
14257;DHT22;7212;53.254;6.456;2022-07-06T13:29:23;23.60;99.80
14257;DHT22;7212;53.254;6.456;2022-07-06T13:31:49;23.70;99.70
14257;DHT22;7212;53.254;6.456;2022-07-06T13:34:14;23.60;99.40
14257;DHT22;7212;53.254;6.456;2022-07-06T13:36:40;23.50;99.90
14257;DHT22;7212;53.254;6.456;2022-07-06T13:39:06;23.50;99.50
14257;DHT22;7212;53.254;6.456;2022-07-06T13:41:33;23.40;99.90
14257;DHT22;7212;53.254;6.456;2022-07-06T13:43:59;23.40;99.90
14257;DHT22;7212;53.254;6.456;2022-07-06T13:46:27;23.30;99.90
14257;DHT22;7212;53.254;6.456;2022-07-06T13:48:53;23.30;99.40
14257;DHT22;7212;53.254;6.456;2022-07-06T13:51:19;23.20;99.90
14257;DHT22;7212;53.254;6.456;2022-07-06T13:53:45;23.20;99.90
14257;DHT22;7212;53.254;6.456;2022-07-06T13:56:11;23.20;99.90
14257;DHT22;7212;53.254;6.456;2022-07-06T13:58:36;23.20;99.90
14257;DHT22;7212;53.254;6.456;2022-07-06T14:01:03;23.10;99.90
14257;DHT22;7212;53.254;6.456;2022-07-06T14:03:29;23.10;99.80
14257;DHT22;7212;53.254;6.456;2022-07-06T14:06:05;23.00;99.90
14257;DHT22;7212;53.254;6.456;2022-07-06T14:08:35;22.90;99.30
14257;DHT22;7212;53.254;6.456;2022-07-06T14:11:01;22.60;99.80
14257;DHT22;7212;53.254;6.456;2022-07-06T14:13:27;22.40;99.40
14257;DHT22;7212;53.254;6.456;2022-07-06T14:15:53;22.30;99.90
14257;DHT22;7212;53.254;6.456;2022-07-06T14:18:19;22.20;99.90
14257;DHT22;7212;53.254;6.456;2022-07-06T14:20:48;22.10;99.90
14257;DHT22;7212;53.254;6.456;2022-07-06T14:23:15;22.00;99.90
14257;DHT22;7212;53.254;6.456;2022-07-06T14:25:42;21.90;99.90
14257;DHT22;7212;53.254;6.456;2022-07-06T14:28:08;21.80;99.90
14257;DHT22;7212;53.254;6.456;2022-07-06T14:30:35;21.70;99.90
14257;DHT22;7212;53.254;6.456;2022-07-06T14:33:05;21.60;99.90
14257;DHT22;7212;53.254;6.456;2022-07-06T14:35:39;21.60;99.90
14257;DHT22;7212;53.254;6.456;2022-07-06T14:38:06;21.60;99.90
14257;DHT22;7212;53.254;6.456;2022-07-06T14:40:33;21.50;99.90
14257;DHT22;7212;53.254;6.456;2022-07-06T14:42:59;21.50;99.90
14257;DHT22;7212;53.254;6.456;2022-07-06T14:45:25;21.50;99.90
14257;DHT22;7212;53.254;6.456;2022-07-06T14:47:51;21.50;99.90
14257;DHT22;7212;53.254;6.456;2022-07-06T14:50:17;21.40;99.90
14257;DHT22;7212;53.254;6.456;2022-07-06T14:52:42;21.40;99.90
14257;DHT22;7212;53.254;6.456;2022-07-06T14:55:08;21.30;99.90
14257;DHT22;7212;53.254;6.456;2022-07-06T14:57:34;21.30;99.90
14257;DHT22;7212;53.254;6.456;2022-07-06T15:00:00;21.30;99.90
14257;DHT22;7212;53.254;6.456;2022-07-06T15:02:25;21.30;99.90
14257;DHT22;7212;53.254;6.456;2022-07-06T15:04:51;21.20;99.90
14257;DHT22;7212;53.254;6.456;2022-07-06T15:07:17;21.20;99.90
14257;DHT22;7212;53.254;6.456;2022-07-06T15:09:42;21.20;99.90
14257;DHT22;7212;53.254;6.456;2022-07-06T15:12:09;21.30;99.90
14257;DHT22;7212;53.254;6.456;2022-07-06T15:14:34;21.30;99.90
14257;DHT22;7212;53.254;6.456;2022-07-06T15:17:01;21.20;99.90
14257;DHT22;7212;53.254;6.456;2022-07-06T15:19:27;21.20;99.90
14257;DHT22;7212;53.254;6.456;2022-07-06T15:21:53;21.20;99.90
14257;DHT22;7212;53.254;6.456;2022-07-06T15:24:19;21.00;99.90
14257;DHT22;7212;53.254;6.456;2022-07-06T15:26:45;20.80;99.90
14257;DHT22;7212;53.254;6.456;2022-07-06T15:29:10;20.80;99.90
14257;DHT22;7212;53.254;6.456;2022-07-06T15:31:36;20.80;99.90
14257;DHT22;7212;53.254;6.456;2022-07-06T15:34:02;20.80;99.90
14257;DHT22;7212;53.254;6.456;2022-07-06T15:36:28;20.80;99.90
14257;DHT22;7212;53.254;6.456;2022-07-06T15:38:53;20.80;99.90
14257;DHT22;7212;53.254;6.456;2022-07-06T15:41:19;20.70;99.90
14257;DHT22;7212;53.254;6.456;2022-07-06T15:43:45;20.70;99.90
14257;DHT22;7212;53.254;6.456;2022-07-06T15:46:11;20.60;99.90
14257;DHT22;7212;53.254;6.456;2022-07-06T15:48:37;20.60;99.90
14257;DHT22;7212;53.254;6.456;2022-07-06T15:51:03;20.60;99.90
14257;DHT22;7212;53.254;6.456;2022-07-06T15:53:29;20.50;99.90
14257;DHT22;7212;53.254;6.456;2022-07-06T15:55:56;20.30;99.90
14257;DHT22;7212;53.254;6.456;2022-07-06T15:58:22;20.30;99.90
14257;DHT22;7212;53.254;6.456;2022-07-06T16:00:48;20.30;99.90